Chennai International Airport
VOMM : now visible

Airfield :











YOU CAN JOIN US ON...

 
LOGIN :

Register | Disclaimer

   EN    FR    IT 

 









Legend :    VFR   Marginal VFR   IFR   Intensive IFR   Very Intensive IFR
Visi :
Ceiling :
>= 8 km
>= 3000ft
5 to 8 km
1000 to 3000 ft
1500m to 5 km
500 to 1000 ft
800 to 1500m
200 to 500 ft
< 800m
< 200 ft
Symbols :   Thunderstorms  Fog  Heavy snow  Heavy precipitations  Wind > 20 kt






- Airport Elevation : 52 ft
- IATA code : MAA


VOMM - Chennai International

CURRENT METAR :
  • 161800Z 07005KT 5000 HZ FEW020 25/19 Q1016 NOSIG

EXPIRED METARs :
  • 161730Z 09006KT 5000 HZ FEW020 26/19 Q1016 NOSIG
  • 161700Z 07006KT 5000 HZ FEW020 25/19 Q1016 NOSIG
  • 161630Z 06005KT 5000 HZ FEW020 26/19 Q1016 NOSIG
  • 161600Z 07006KT 5000 HZ FEW020 26/19 Q1016 NOSIG
  • 161530Z 07006KT 5000 HZ FEW020 26/19 Q1016 NOSIG

TAF TAF VOMM
Valid from the 16 at 18:00 until the 18 at 00:00 UTC


161700Z 1618/1724 09005KT 5000 HZ FEW020
BECMG 1621/1622 00000KT 3000 BR
BECMG 1700/1701 1500 BR
PROB30
TEMPO 1700/1703 0800 MIFG
BECMG 1703/1704 27005KT 3000 BR
BECMG 1706/1707 11010KT 5000 HZ



MET'MAP, your aeronautical weather chart ! - Copyright ORBIFLY December 2007 - Disclaimer

ORBIFLY MET'MAP TEAM :

Programming & Development : Alexandra Zaïnal
Concept & original design : Baudouin d'Aumeries
Assistance for programming : Marc-Olivier Méhu
Technical & hardware support : Manuel Goepfert

Contact : metmap@orbifly.com




SOURCES & CREDITS :

   NOAA       Earth
Advisory